This is the latest recevied weather packets stored in our database for station/object AG1T-20. If no packets are shown the sender has not sent any weather packets the latest 10 day(s).
| Time | Temp. | Humidity | Pressure | Rain* | Wind** | Luminosity | Snow |
|---|---|---|---|---|---|---|---|
| 1788123005 | 25.56° C | 35% | 1019.8 hPa | 0 mm | - | 651 W/m² | - |
| 1788122405 | 25° C | 41% | 1019.8 hPa | 0 mm | - | 653 W/m² | - |
| 1788121804 | 25.56° C | 34% | 1019.8 hPa | 0 mm | - | 677 W/m² | - |
| 1788121204 | 25° C | 38% | 1019.8 hPa | 0 mm | - | 694 W/m² | - |
| 1788120604 | 25° C | 37% | 1019.8 hPa | 0 mm | - | 719 W/m² | - |
| 1788120005 | 24.44° C | 42% | 1019.8 hPa | 0 mm | - | 735 W/m² | - |
| 1788119404 | 25° C | 42% | 1020 hPa | 0 mm | - | 761 W/m² | - |
| 1788118805 | 25° C | 42% | 1020 hPa | 0 mm | - | 776 W/m² | - |
| 1788118204 | 23.89° C | 44% | 1020 hPa | 0 mm | - | 805 W/m² | - |
| 1788117604 | 24.44° C | 46% | 1020 hPa | 0 mm | - | 828 W/m² | - |
| 1788117004 | 23.89° C | 47% | 1020 hPa | 0 mm | - | 848 W/m² | - |
| 1788116404 | 23.89° C | 43% | 1020 hPa | 0 mm | - | 831 W/m² | - |
| 1788115804 | 23.89° C | 44% | 1020.2 hPa | 0 mm | - | 844 W/m² | - |
| 1788115205 | 24.44° C | 48% | 1020.2 hPa | 0 mm | - | 844 W/m² | - |
| 1788114605 | 23.89° C | 46% | 1020.2 hPa | 0 mm | - | 849 W/m² | - |
| 1788114004 | 22.78° C | 51% | 1020.2 hPa | 0 mm | - | 850 W/m² | - |
| 1788113405 | 22.78° C | 49% | 1020.2 hPa | 0 mm | - | 855 W/m² | - |
| 1788112805 | 22.78° C | 50% | 1020.2 hPa | 0 mm | - | 871 W/m² | - |
| 1788112204 | 21.67° C | 54% | 1020.2 hPa | 0 mm | - | 856 W/m² | - |
| 1788111605 | 22.22° C | 52% | 1020.2 hPa | 0 mm | - | 851 W/m² | - |
| 1788111004 | 21.11° C | 56% | 1020.2 hPa | 0 mm | - | 849 W/m² | - |
| 1788110404 | 21.67° C | 57% | 1020.2 hPa | 0 mm | - | 842 W/m² | - |
| 1788109805 | 21.11° C | 57% | 1020.2 hPa | 0 mm | - | 837 W/m² | - |
| 1788109204 | 21.11° C | 57% | 1020.2 hPa | 0 mm | - | 831 W/m² | - |
| 1788108604 | 21.11° C | 59% | 1020.2 hPa | 0 mm | - | 818 W/m² | - |
* Rain latest hour (hover to see other rain measurements)
** Current wind speed in m/s (hover to see current wind gust speed)